createdAt,value
2023-05-07T11:14:44.874Z,980.87
2023-05-07T11:15:45.893Z,980.93
2023-05-07T11:16:45.979Z,980.81
2023-05-07T11:17:45.808Z,980.75
2023-05-07T11:18:45.899Z,980.80
2023-05-07T11:19:45.798Z,980.82
2023-05-07T11:20:45.827Z,980.78
2023-05-07T11:21:45.768Z,980.74
2023-05-07T11:22:45.907Z,980.72
2023-05-07T11:23:45.826Z,980.72
2023-05-07T11:24:45.711Z,980.76
2023-05-07T11:25:45.756Z,980.75
2023-05-07T11:26:45.789Z,980.72
2023-05-07T11:27:45.746Z,980.73
2023-05-07T11:28:45.684Z,980.70
2023-05-07T11:29:45.773Z,980.70
2023-05-07T11:30:45.898Z,980.72
2023-05-07T11:31:45.708Z,980.72
2023-05-07T11:32:45.635Z,980.68
2023-05-07T11:33:45.647Z,980.78
2023-05-07T11:34:45.710Z,980.82
2023-05-07T11:35:45.721Z,980.80
2023-05-07T11:36:45.657Z,980.70
2023-05-07T11:37:45.715Z,980.81
2023-05-07T11:38:45.583Z,980.76
2023-05-07T11:39:45.608Z,980.76
2023-05-07T11:40:45.545Z,980.74
2023-05-07T11:41:45.515Z,980.76
2023-05-07T11:42:45.594Z,980.74
2023-05-07T11:43:45.494Z,980.65
2023-05-07T11:44:45.658Z,980.67
2023-05-07T11:45:45.549Z,980.72
2023-05-07T11:46:45.494Z,980.66
2023-05-07T11:47:45.528Z,980.75
2023-05-07T11:48:45.446Z,980.77
2023-05-07T11:49:45.445Z,980.77
2023-05-07T11:50:45.459Z,980.67
2023-05-07T11:51:45.723Z,980.81
2023-05-07T11:52:45.621Z,980.77
2023-05-07T11:53:45.636Z,980.74
2023-05-07T11:54:45.358Z,980.73
2023-05-07T11:55:45.435Z,980.72
2023-05-07T11:56:45.329Z,980.74
2023-05-07T11:57:45.305Z,980.68
2023-05-07T11:58:45.276Z,980.66
2023-05-07T11:59:45.480Z,980.76
2023-05-07T12:00:45.578Z,980.70
2023-05-07T12:01:45.438Z,980.65
2023-05-07T12:02:45.434Z,980.62
2023-05-07T12:03:45.495Z,980.60
2023-05-07T12:04:45.661Z,980.63
2023-05-07T12:05:45.308Z,980.59
2023-05-07T12:06:45.202Z,980.60
2023-05-07T12:07:45.340Z,980.58
2023-05-07T12:08:47.044Z,980.54
2023-05-07T12:09:45.216Z,980.58
2023-05-07T12:10:45.184Z,980.57
2023-05-07T12:11:45.237Z,980.65
2023-05-07T12:12:45.163Z,980.60
2023-05-07T12:13:45.095Z,980.70
2023-05-07T12:14:45.162Z,980.65
2023-05-07T12:15:45.101Z,980.68
2023-05-07T12:16:45.312Z,980.66
2023-05-07T12:17:45.113Z,980.70
2023-05-07T12:18:45.169Z,980.67
2023-05-07T12:19:45.057Z,980.68
2023-05-07T12:20:45.038Z,980.65
2023-05-07T12:21:45.102Z,980.70
2023-05-07T12:22:44.972Z,980.63
2023-05-07T12:23:44.999Z,980.61
2023-05-07T12:24:45.230Z,980.72
2023-05-07T12:25:45.018Z,980.70
2023-05-07T12:26:45.274Z,980.69
2023-05-07T12:27:44.925Z,980.68
2023-05-07T12:28:45.157Z,980.62
2023-05-07T12:29:45.101Z,980.68
2023-05-07T12:30:45.184Z,980.68
2023-05-07T12:31:45.050Z,980.65
2023-05-07T12:32:44.876Z,980.61
2023-05-07T12:33:45.011Z,980.61
2023-05-07T12:34:45.747Z,980.66
2023-05-07T12:35:44.801Z,980.64
2023-05-07T12:36:44.916Z,980.65
2023-05-07T12:37:44.760Z,980.61
2023-05-07T12:38:44.773Z,980.58
2023-05-07T12:39:45.003Z,980.56
2023-05-07T12:40:44.829Z,980.55
2023-05-07T12:41:45.102Z,980.51
2023-05-07T12:42:44.942Z,980.54
2023-05-07T12:43:44.783Z,980.56
2023-05-07T12:44:44.690Z,980.49
2023-05-07T12:45:44.732Z,980.46
2023-05-07T12:46:44.716Z,980.45
2023-05-07T12:47:44.814Z,980.45
2023-05-07T12:48:44.685Z,980.42
2023-05-07T12:49:44.711Z,980.47
2023-05-07T12:50:44.582Z,980.47
2023-05-07T12:51:44.590Z,980.48
2023-05-07T12:52:44.707Z,980.45
2023-05-07T12:53:44.602Z,980.50
2023-05-07T12:54:44.571Z,980.47
2023-05-07T12:55:44.783Z,980.48
2023-05-07T12:56:44.749Z,980.43
2023-05-07T12:57:44.631Z,980.47
2023-05-07T12:58:44.629Z,980.42
2023-05-07T12:59:44.687Z,980.44
2023-05-07T13:00:44.558Z,980.44
2023-05-07T13:01:44.513Z,980.41
2023-05-07T13:02:44.673Z,980.44
2023-05-07T13:03:44.578Z,980.41
2023-05-07T13:04:44.561Z,980.42
2023-05-07T13:05:44.410Z,980.35
2023-05-07T13:06:44.543Z,980.36
2023-05-07T13:07:44.485Z,980.32
2023-05-07T13:08:44.415Z,980.32
2023-05-07T13:09:44.477Z,980.34
2023-05-07T13:10:44.363Z,980.30
2023-05-07T13:11:44.347Z,980.24
2023-05-07T13:12:44.444Z,980.27
2023-05-07T13:13:44.376Z,980.27
2023-05-07T13:14:44.315Z,980.24
2023-05-07T13:15:44.408Z,980.22
2023-05-07T13:16:44.403Z,980.27
2023-05-07T13:17:44.274Z,980.22
2023-05-07T13:18:44.510Z,980.17
2023-05-07T13:19:44.364Z,980.30
2023-05-07T13:20:44.188Z,980.21
2023-05-07T13:21:44.241Z,980.18
2023-05-07T13:22:44.271Z,980.20
2023-05-07T13:23:44.349Z,980.18
2023-05-07T13:24:44.205Z,980.19
2023-05-07T13:25:44.479Z,980.17
2023-05-07T13:26:45.895Z,980.22
2023-05-07T13:27:44.381Z,980.18
2023-05-07T13:28:44.489Z,980.15
2023-05-07T13:29:44.101Z,980.22
2023-05-07T13:30:44.212Z,980.21
2023-05-07T13:31:44.107Z,980.26
2023-05-07T13:32:44.129Z,980.22
2023-05-07T13:33:44.161Z,980.22
2023-05-07T13:34:44.304Z,980.24
2023-05-07T13:35:44.029Z,980.27
2023-05-07T13:36:44.023Z,980.23
2023-05-07T13:37:44.130Z,980.26
2023-05-07T13:38:44.310Z,980.29
2023-05-07T13:39:44.047Z,980.24
2023-05-07T13:40:44.012Z,980.26
2023-05-07T13:41:44.133Z,980.26
2023-05-07T13:42:43.928Z,980.21
2023-05-07T13:43:43.989Z,980.26
2023-05-07T13:44:43.926Z,980.27
2023-05-07T13:45:43.928Z,980.26
2023-05-07T13:46:44.050Z,980.19
2023-05-07T13:47:44.036Z,980.33
2023-05-07T13:48:43.994Z,980.19
2023-05-07T13:49:44.015Z,980.22
2023-05-07T13:50:43.884Z,980.26
2023-05-07T13:51:43.818Z,980.25
2023-05-07T13:52:45.749Z,980.24
2023-05-07T13:53:43.858Z,980.26
2023-05-07T13:54:43.887Z,980.20
2023-05-07T13:55:43.763Z,980.20
2023-05-07T13:56:43.974Z,980.22
2023-05-07T13:57:43.734Z,980.20
2023-05-07T13:58:56.169Z,980.27
2023-05-07T13:59:43.850Z,980.17
2023-05-07T14:00:43.738Z,980.26
2023-05-07T14:01:43.762Z,980.43
2023-05-07T14:02:43.675Z,980.24
2023-05-07T14:03:43.793Z,980.23
2023-05-07T14:04:43.722Z,980.30
2023-05-07T14:05:43.724Z,980.32
